sensor_id;sensor_type;location;lat;lon;timestamp;P1;durP1;ratioP1;P2;durP2;ratioP2
14381;SDS011;7275;50.328;8.720;2024-01-30T00:00:13;10.93;;;8.17;;
14381;SDS011;7275;50.328;8.720;2024-01-30T00:02:41;11.13;;;8.27;;
14381;SDS011;7275;50.328;8.720;2024-01-30T00:05:09;10.97;;;7.77;;
14381;SDS011;7275;50.328;8.720;2024-01-30T00:07:38;10.20;;;8.10;;
14381;SDS011;7275;50.328;8.720;2024-01-30T00:10:06;10.33;;;8.03;;
14381;SDS011;7275;50.328;8.720;2024-01-30T00:12:34;9.70;;;7.67;;
14381;SDS011;7275;50.328;8.720;2024-01-30T00:15:01;10.57;;;7.80;;
14381;SDS011;7275;50.328;8.720;2024-01-30T00:17:30;10.23;;;7.03;;
14381;SDS011;7275;50.328;8.720;2024-01-30T00:19:58;9.07;;;7.10;;
14381;SDS011;7275;50.328;8.720;2024-01-30T00:22:26;12.77;;;7.57;;
14381;SDS011;7275;50.328;8.720;2024-01-30T00:24:58;9.37;;;7.53;;
14381;SDS011;7275;50.328;8.720;2024-01-30T00:27:25;12.33;;;9.10;;
14381;SDS011;7275;50.328;8.720;2024-01-30T00:29:53;11.53;;;8.97;;
14381;SDS011;7275;50.328;8.720;2024-01-30T00:32:21;10.87;;;8.40;;
14381;SDS011;7275;50.328;8.720;2024-01-30T00:34:50;11.80;;;9.00;;
14381;SDS011;7275;50.328;8.720;2024-01-30T00:37:17;11.10;;;8.93;;
14381;SDS011;7275;50.328;8.720;2024-01-30T00:39:45;11.20;;;8.20;;
14381;SDS011;7275;50.328;8.720;2024-01-30T00:42:14;12.20;;;8.17;;
14381;SDS011;7275;50.328;8.720;2024-01-30T00:44:42;10.80;;;8.50;;
14381;SDS011;7275;50.328;8.720;2024-01-30T00:47:09;9.83;;;7.70;;
14381;SDS011;7275;50.328;8.720;2024-01-30T00:49:37;10.60;;;7.97;;
14381;SDS011;7275;50.328;8.720;2024-01-30T00:52:05;11.03;;;7.70;;
14381;SDS011;7275;50.328;8.720;2024-01-30T00:54:33;12.57;;;7.80;;
14381;SDS011;7275;50.328;8.720;2024-01-30T00:57:01;10.40;;;7.87;;
14381;SDS011;7275;50.328;8.720;2024-01-30T00:59:29;9.30;;;7.47;;
14381;SDS011;7275;50.328;8.720;2024-01-30T01:01:57;9.37;;;7.57;;
14381;SDS011;7275;50.328;8.720;2024-01-30T01:04:25;9.50;;;7.10;;
14381;SDS011;7275;50.328;8.720;2024-01-30T01:06:53;8.90;;;7.57;;
14381;SDS011;7275;50.328;8.720;2024-01-30T01:09:21;8.27;;;6.80;;
14381;SDS011;7275;50.328;8.720;2024-01-30T01:11:49;9.40;;;6.70;;
14381;SDS011;7275;50.328;8.720;2024-01-30T01:14:16;9.57;;;6.90;;
14381;SDS011;7275;50.328;8.720;2024-01-30T01:16:45;9.37;;;7.00;;
14381;SDS011;7275;50.328;8.720;2024-01-30T01:19:12;8.67;;;6.30;;
14381;SDS011;7275;50.328;8.720;2024-01-30T01:21:40;8.53;;;6.87;;
14381;SDS011;7275;50.328;8.720;2024-01-30T01:24:08;10.23;;;6.80;;
14381;SDS011;7275;50.328;8.720;2024-01-30T01:26:35;9.73;;;7.07;;
14381;SDS011;7275;50.328;8.720;2024-01-30T01:29:03;10.10;;;7.27;;
14381;SDS011;7275;50.328;8.720;2024-01-30T01:31:36;9.83;;;7.40;;
14381;SDS011;7275;50.328;8.720;2024-01-30T01:34:11;9.07;;;7.23;;
14381;SDS011;7275;50.328;8.720;2024-01-30T01:36:39;11.53;;;7.33;;
14381;SDS011;7275;50.328;8.720;2024-01-30T01:39:06;8.47;;;6.97;;
14381;SDS011;7275;50.328;8.720;2024-01-30T01:41:34;9.50;;;7.33;;
14381;SDS011;7275;50.328;8.720;2024-01-30T01:44:02;11.00;;;7.77;;
14381;SDS011;7275;50.328;8.720;2024-01-30T01:46:32;8.53;;;6.70;;
14381;SDS011;7275;50.328;8.720;2024-01-30T01:49:00;11.70;;;7.87;;
14381;SDS011;7275;50.328;8.720;2024-01-30T01:51:33;10.30;;;7.27;;
14381;SDS011;7275;50.328;8.720;2024-01-30T01:54:03;10.23;;;8.00;;
14381;SDS011;7275;50.328;8.720;2024-01-30T01:56:32;8.93;;;7.20;;
14381;SDS011;7275;50.328;8.720;2024-01-30T01:59:04;10.40;;;8.13;;
14381;SDS011;7275;50.328;8.720;2024-01-30T02:01:32;12.90;;;8.00;;
14381;SDS011;7275;50.328;8.720;2024-01-30T02:04:01;10.03;;;7.43;;
14381;SDS011;7275;50.328;8.720;2024-01-30T02:06:28;10.27;;;7.67;;
14381;SDS011;7275;50.328;8.720;2024-01-30T02:08:57;10.03;;;7.57;;
14381;SDS011;7275;50.328;8.720;2024-01-30T02:11:25;10.40;;;7.63;;
14381;SDS011;7275;50.328;8.720;2024-01-30T02:13:53;11.50;;;7.90;;
14381;SDS011;7275;50.328;8.720;2024-01-30T02:16:20;10.50;;;7.43;;
14381;SDS011;7275;50.328;8.720;2024-01-30T02:18:48;10.60;;;8.07;;
14381;SDS011;7275;50.328;8.720;2024-01-30T02:21:17;12.23;;;8.30;;
14381;SDS011;7275;50.328;8.720;2024-01-30T02:23:45;11.20;;;7.60;;
14381;SDS011;7275;50.328;8.720;2024-01-30T02:26:14;10.37;;;7.77;;
14381;SDS011;7275;50.328;8.720;2024-01-30T02:28:41;10.13;;;7.70;;
14381;SDS011;7275;50.328;8.720;2024-01-30T02:31:09;10.47;;;7.90;;
14381;SDS011;7275;50.328;8.720;2024-01-30T02:33:36;12.50;;;8.30;;
14381;SDS011;7275;50.328;8.720;2024-01-30T02:36:04;9.73;;;8.00;;
14381;SDS011;7275;50.328;8.720;2024-01-30T02:38:33;10.17;;;7.30;;
14381;SDS011;7275;50.328;8.720;2024-01-30T02:41:01;8.50;;;7.20;;
14381;SDS011;7275;50.328;8.720;2024-01-30T02:43:28;9.80;;;7.43;;
14381;SDS011;7275;50.328;8.720;2024-01-30T02:45:56;11.40;;;7.67;;
14381;SDS011;7275;50.328;8.720;2024-01-30T02:48:24;9.03;;;7.60;;
14381;SDS011;7275;50.328;8.720;2024-01-30T02:50:52;10.13;;;7.60;;
14381;SDS011;7275;50.328;8.720;2024-01-30T02:53:19;11.27;;;8.73;;
14381;SDS011;7275;50.328;8.720;2024-01-30T02:55:48;10.23;;;8.27;;
14381;SDS011;7275;50.328;8.720;2024-01-30T02:58:16;10.87;;;8.17;;
14381;SDS011;7275;50.328;8.720;2024-01-30T03:00:43;11.07;;;7.57;;
14381;SDS011;7275;50.328;8.720;2024-01-30T03:03:11;11.13;;;8.13;;
14381;SDS011;7275;50.328;8.720;2024-01-30T03:05:39;12.43;;;8.07;;
14381;SDS011;7275;50.328;8.720;2024-01-30T03:08:06;10.70;;;7.70;;
14381;SDS011;7275;50.328;8.720;2024-01-30T03:10:34;11.43;;;7.73;;
14381;SDS011;7275;50.328;8.720;2024-01-30T03:13:03;12.47;;;8.60;;
14381;SDS011;7275;50.328;8.720;2024-01-30T03:15:31;10.90;;;8.40;;
14381;SDS011;7275;50.328;8.720;2024-01-30T03:17:59;12.50;;;8.87;;
14381;SDS011;7275;50.328;8.720;2024-01-30T03:20:26;12.27;;;8.70;;
14381;SDS011;7275;50.328;8.720;2024-01-30T03:22:55;10.90;;;8.60;;
14381;SDS011;7275;50.328;8.720;2024-01-30T03:25:22;10.70;;;8.03;;
14381;SDS011;7275;50.328;8.720;2024-01-30T03:27:50;11.43;;;8.30;;
14381;SDS011;7275;50.328;8.720;2024-01-30T03:30:19;11.23;;;8.20;;
14381;SDS011;7275;50.328;8.720;2024-01-30T03:32:47;9.73;;;8.00;;
14381;SDS011;7275;50.328;8.720;2024-01-30T03:35:15;11.57;;;8.87;;
14381;SDS011;7275;50.328;8.720;2024-01-30T03:37:43;11.13;;;8.60;;
14381;SDS011;7275;50.328;8.720;2024-01-30T03:40:11;11.00;;;8.40;;
14381;SDS011;7275;50.328;8.720;2024-01-30T03:42:40;11.27;;;8.13;;
14381;SDS011;7275;50.328;8.720;2024-01-30T03:45:07;11.70;;;8.43;;
14381;SDS011;7275;50.328;8.720;2024-01-30T03:47:37;10.17;;;8.00;;
14381;SDS011;7275;50.328;8.720;2024-01-30T03:50:05;11.80;;;8.20;;
14381;SDS011;7275;50.328;8.720;2024-01-30T03:52:33;11.30;;;8.60;;
14381;SDS011;7275;50.328;8.720;2024-01-30T03:55:00;12.10;;;8.63;;
14381;SDS011;7275;50.328;8.720;2024-01-30T03:57:28;11.37;;;8.67;;
14381;SDS011;7275;50.328;8.720;2024-01-30T03:59:56;11.03;;;8.50;;
14381;SDS011;7275;50.328;8.720;2024-01-30T04:02:27;12.17;;;8.97;;
14381;SDS011;7275;50.328;8.720;2024-01-30T04:04:56;12.67;;;8.87;;
14381;SDS011;7275;50.328;8.720;2024-01-30T04:07:25;12.07;;;9.03;;
14381;SDS011;7275;50.328;8.720;2024-01-30T04:09:52;14.30;;;9.17;;
14381;SDS011;7275;50.328;8.720;2024-01-30T04:12:20;11.97;;;9.30;;
14381;SDS011;7275;50.328;8.720;2024-01-30T04:14:47;12.67;;;9.27;;
14381;SDS011;7275;50.328;8.720;2024-01-30T04:17:15;14.27;;;9.80;;
14381;SDS011;7275;50.328;8.720;2024-01-30T04:19:42;12.40;;;9.03;;
14381;SDS011;7275;50.328;8.720;2024-01-30T04:22:11;12.70;;;9.73;;
14381;SDS011;7275;50.328;8.720;2024-01-30T04:24:39;11.70;;;9.37;;
14381;SDS011;7275;50.328;8.720;2024-01-30T04:27:07;12.87;;;9.97;;
14381;SDS011;7275;50.328;8.720;2024-01-30T04:29:34;12.83;;;10.20;;
14381;SDS011;7275;50.328;8.720;2024-01-30T04:32:02;14.17;;;9.80;;
14381;SDS011;7275;50.328;8.720;2024-01-30T04:34:30;13.27;;;9.93;;
14381;SDS011;7275;50.328;8.720;2024-01-30T04:36:58;13.77;;;9.83;;
14381;SDS011;7275;50.328;8.720;2024-01-30T04:39:27;13.50;;;9.53;;
14381;SDS011;7275;50.328;8.720;2024-01-30T04:41:54;13.07;;;10.33;;
14381;SDS011;7275;50.328;8.720;2024-01-30T04:44:22;13.27;;;10.80;;
14381;SDS011;7275;50.328;8.720;2024-01-30T04:46:49;15.10;;;10.33;;
14381;SDS011;7275;50.328;8.720;2024-01-30T04:49:18;12.97;;;9.67;;
14381;SDS011;7275;50.328;8.720;2024-01-30T04:51:46;12.27;;;9.70;;
14381;SDS011;7275;50.328;8.720;2024-01-30T04:54:13;12.13;;;9.63;;
14381;SDS011;7275;50.328;8.720;2024-01-30T04:56:42;14.30;;;9.77;;
14381;SDS011;7275;50.328;8.720;2024-01-30T04:59:10;12.00;;;9.30;;
14381;SDS011;7275;50.328;8.720;2024-01-30T05:01:39;12.53;;;9.87;;
14381;SDS011;7275;50.328;8.720;2024-01-30T05:04:07;14.47;;;10.37;;
14381;SDS011;7275;50.328;8.720;2024-01-30T05:06:37;12.97;;;10.13;;
14381;SDS011;7275;50.328;8.720;2024-01-30T05:09:04;13.43;;;10.17;;
14381;SDS011;7275;50.328;8.720;2024-01-30T05:11:36;17.53;;;10.63;;
14381;SDS011;7275;50.328;8.720;2024-01-30T05:14:05;14.20;;;10.60;;
14381;SDS011;7275;50.328;8.720;2024-01-30T05:16:33;12.60;;;10.10;;
14381;SDS011;7275;50.328;8.720;2024-01-30T05:19:01;13.50;;;9.83;;
14381;SDS011;7275;50.328;8.720;2024-01-30T05:21:29;13.33;;;10.20;;
14381;SDS011;7275;50.328;8.720;2024-01-30T05:23:56;13.93;;;10.37;;
14381;SDS011;7275;50.328;8.720;2024-01-30T05:26:23;15.37;;;10.67;;
14381;SDS011;7275;50.328;8.720;2024-01-30T05:28:51;13.53;;;9.93;;
14381;SDS011;7275;50.328;8.720;2024-01-30T05:31:20;12.83;;;9.97;;
14381;SDS011;7275;50.328;8.720;2024-01-30T05:33:47;13.93;;;10.67;;
14381;SDS011;7275;50.328;8.720;2024-01-30T05:36:15;13.93;;;10.73;;
14381;SDS011;7275;50.328;8.720;2024-01-30T05:38:43;14.37;;;11.20;;
14381;SDS011;7275;50.328;8.720;2024-01-30T05:41:10;14.03;;;10.97;;
14381;SDS011;7275;50.328;8.720;2024-01-30T05:43:38;15.23;;;11.50;;
14381;SDS011;7275;50.328;8.720;2024-01-30T05:46:06;17.57;;;12.43;;
14381;SDS011;7275;50.328;8.720;2024-01-30T05:48:35;15.50;;;11.20;;
14381;SDS011;7275;50.328;8.720;2024-01-30T05:51:02;14.93;;;11.43;;
14381;SDS011;7275;50.328;8.720;2024-01-30T05:53:31;15.90;;;11.03;;
14381;SDS011;7275;50.328;8.720;2024-01-30T05:55:59;16.10;;;11.97;;
14381;SDS011;7275;50.328;8.720;2024-01-30T05:58:26;16.20;;;11.60;;
14381;SDS011;7275;50.328;8.720;2024-01-30T06:00:54;14.87;;;11.23;;
14381;SDS011;7275;50.328;8.720;2024-01-30T06:03:22;17.03;;;11.53;;
14381;SDS011;7275;50.328;8.720;2024-01-30T06:05:51;15.67;;;11.43;;
14381;SDS011;7275;50.328;8.720;2024-01-30T06:08:18;15.23;;;11.80;;
14381;SDS011;7275;50.328;8.720;2024-01-30T06:10:46;15.80;;;11.70;;
14381;SDS011;7275;50.328;8.720;2024-01-30T06:13:14;16.13;;;12.23;;
14381;SDS011;7275;50.328;8.720;2024-01-30T06:15:42;15.50;;;12.30;;
14381;SDS011;7275;50.328;8.720;2024-01-30T06:18:09;14.73;;;11.77;;
14381;SDS011;7275;50.328;8.720;2024-01-30T06:20:37;15.23;;;11.53;;
14381;SDS011;7275;50.328;8.720;2024-01-30T06:23:06;14.57;;;11.50;;
14381;SDS011;7275;50.328;8.720;2024-01-30T06:25:33;15.30;;;11.17;;
14381;SDS011;7275;50.328;8.720;2024-01-30T06:28:01;15.53;;;12.10;;
14381;SDS011;7275;50.328;8.720;2024-01-30T06:30:28;16.00;;;11.77;;
14381;SDS011;7275;50.328;8.720;2024-01-30T06:32:56;17.43;;;12.57;;
14381;SDS011;7275;50.328;8.720;2024-01-30T06:35:24;13.70;;;11.20;;
14381;SDS011;7275;50.328;8.720;2024-01-30T06:37:51;14.43;;;11.73;;
14381;SDS011;7275;50.328;8.720;2024-01-30T06:40:20;14.00;;;10.90;;
14381;SDS011;7275;50.328;8.720;2024-01-30T06:42:48;14.57;;;11.20;;
14381;SDS011;7275;50.328;8.720;2024-01-30T06:45:15;14.37;;;11.63;;
14381;SDS011;7275;50.328;8.720;2024-01-30T06:47:43;16.03;;;12.20;;
14381;SDS011;7275;50.328;8.720;2024-01-30T06:50:11;16.13;;;11.97;;
14381;SDS011;7275;50.328;8.720;2024-01-30T06:52:39;17.13;;;12.03;;
14381;SDS011;7275;50.328;8.720;2024-01-30T06:55:06;15.07;;;11.53;;
14381;SDS011;7275;50.328;8.720;2024-01-30T06:57:36;15.93;;;12.23;;
14381;SDS011;7275;50.328;8.720;2024-01-30T07:00:04;15.13;;;11.63;;
14381;SDS011;7275;50.328;8.720;2024-01-30T07:02:32;15.00;;;11.23;;
14381;SDS011;7275;50.328;8.720;2024-01-30T07:05:00;16.37;;;12.30;;
14381;SDS011;7275;50.328;8.720;2024-01-30T07:07:27;15.50;;;12.07;;
14381;SDS011;7275;50.328;8.720;2024-01-30T07:09:55;15.67;;;11.83;;
14381;SDS011;7275;50.328;8.720;2024-01-30T07:12:23;15.53;;;12.43;;
14381;SDS011;7275;50.328;8.720;2024-01-30T07:14:53;15.27;;;11.00;;
14381;SDS011;7275;50.328;8.720;2024-01-30T07:17:22;17.47;;;12.00;;
14381;SDS011;7275;50.328;8.720;2024-01-30T07:19:50;14.87;;;11.47;;
14381;SDS011;7275;50.328;8.720;2024-01-30T07:22:17;15.80;;;12.27;;
14381;SDS011;7275;50.328;8.720;2024-01-30T07:24:45;15.57;;;11.83;;
14381;SDS011;7275;50.328;8.720;2024-01-30T07:27:14;16.50;;;11.80;;
14381;SDS011;7275;50.328;8.720;2024-01-30T07:29:43;15.90;;;11.50;;
14381;SDS011;7275;50.328;8.720;2024-01-30T07:32:12;19.03;;;12.23;;
14381;SDS011;7275;50.328;8.720;2024-01-30T07:34:40;16.07;;;12.10;;
14381;SDS011;7275;50.328;8.720;2024-01-30T07:37:24;15.87;;;12.20;;
14381;SDS011;7275;50.328;8.720;2024-01-30T07:39:51;17.67;;;13.17;;
14381;SDS011;7275;50.328;8.720;2024-01-30T07:42:19;19.23;;;12.50;;
14381;SDS011;7275;50.328;8.720;2024-01-30T07:44:46;16.83;;;12.83;;
14381;SDS011;7275;50.328;8.720;2024-01-30T07:47:15;17.20;;;12.33;;
14381;SDS011;7275;50.328;8.720;2024-01-30T07:49:43;16.17;;;12.60;;
14381;SDS011;7275;50.328;8.720;2024-01-30T07:52:10;15.10;;;12.03;;
14381;SDS011;7275;50.328;8.720;2024-01-30T07:54:38;16.97;;;12.50;;
14381;SDS011;7275;50.328;8.720;2024-01-30T08:03:56;15.87;;;12.63;;
14381;SDS011;7275;50.328;8.720;2024-01-30T08:06:24;16.20;;;12.53;;
14381;SDS011;7275;50.328;8.720;2024-01-30T08:08:52;17.27;;;11.77;;
14381;SDS011;7275;50.328;8.720;2024-01-30T08:11:19;15.57;;;12.70;;
14381;SDS011;7275;50.328;8.720;2024-01-30T08:13:51;17.23;;;12.90;;
14381;SDS011;7275;50.328;8.720;2024-01-30T08:16:19;17.30;;;13.07;;
14381;SDS011;7275;50.328;8.720;2024-01-30T08:18:47;17.60;;;12.93;;
14381;SDS011;7275;50.328;8.720;2024-01-30T08:21:16;21.33;;;14.10;;
14381;SDS011;7275;50.328;8.720;2024-01-30T08:23:43;16.87;;;14.07;;
14381;SDS011;7275;50.328;8.720;2024-01-30T08:26:11;17.30;;;13.83;;
14381;SDS011;7275;50.328;8.720;2024-01-30T08:28:38;19.40;;;13.87;;
14381;SDS011;7275;50.328;8.720;2024-01-30T08:31:06;21.07;;;14.97;;
14381;SDS011;7275;50.328;8.720;2024-01-30T08:33:34;18.67;;;14.20;;
14381;SDS011;7275;50.328;8.720;2024-01-30T08:36:03;18.07;;;14.33;;
14381;SDS011;7275;50.328;8.720;2024-01-30T08:38:32;19.70;;;15.00;;
14381;SDS011;7275;50.328;8.720;2024-01-30T08:41:00;18.90;;;14.63;;
14381;SDS011;7275;50.328;8.720;2024-01-30T08:43:28;19.93;;;14.87;;
14381;SDS011;7275;50.328;8.720;2024-01-30T08:45:58;17.40;;;14.40;;
14381;SDS011;7275;50.328;8.720;2024-01-30T08:48:26;19.23;;;14.80;;
14381;SDS011;7275;50.328;8.720;2024-01-30T08:50:54;18.07;;;14.27;;
14381;SDS011;7275;50.328;8.720;2024-01-30T08:53:21;19.43;;;15.30;;
14381;SDS011;7275;50.328;8.720;2024-01-30T08:55:50;18.17;;;14.57;;
14381;SDS011;7275;50.328;8.720;2024-01-30T08:58:20;16.43;;;13.10;;
14381;SDS011;7275;50.328;8.720;2024-01-30T09:00:48;18.60;;;13.90;;
14381;SDS011;7275;50.328;8.720;2024-01-30T09:03:18;16.97;;;14.03;;
14381;SDS011;7275;50.328;8.720;2024-01-30T09:05:45;16.70;;;13.80;;
14381;SDS011;7275;50.328;8.720;2024-01-30T09:08:13;16.77;;;13.83;;
14381;SDS011;7275;50.328;8.720;2024-01-30T09:10:41;17.90;;;14.10;;
14381;SDS011;7275;50.328;8.720;2024-01-30T09:13:10;17.40;;;13.77;;
14381;SDS011;7275;50.328;8.720;2024-01-30T09:15:37;17.80;;;14.30;;
14381;SDS011;7275;50.328;8.720;2024-01-30T09:18:05;15.27;;;13.67;;
14381;SDS011;7275;50.328;8.720;2024-01-30T09:20:33;18.60;;;13.70;;
14381;SDS011;7275;50.328;8.720;2024-01-30T09:23:01;17.87;;;14.30;;
14381;SDS011;7275;50.328;8.720;2024-01-30T09:25:28;21.63;;;14.37;;
14381;SDS011;7275;50.328;8.720;2024-01-30T09:27:56;18.77;;;14.90;;
14381;SDS011;7275;50.328;8.720;2024-01-30T09:30:25;17.07;;;13.93;;
14381;SDS011;7275;50.328;8.720;2024-01-30T09:32:53;16.70;;;14.47;;
14381;SDS011;7275;50.328;8.720;2024-01-30T09:35:21;17.57;;;14.07;;
14381;SDS011;7275;50.328;8.720;2024-01-30T09:37:48;16.63;;;14.40;;
14381;SDS011;7275;50.328;8.720;2024-01-30T09:40:18;18.73;;;15.07;;
14381;SDS011;7275;50.328;8.720;2024-01-30T09:42:47;19.47;;;14.73;;
14381;SDS011;7275;50.328;8.720;2024-01-30T09:45:17;17.87;;;14.43;;
14381;SDS011;7275;50.328;8.720;2024-01-30T09:47:47;16.57;;;14.23;;
14381;SDS011;7275;50.328;8.720;2024-01-30T09:50:15;17.23;;;14.70;;
14381;SDS011;7275;50.328;8.720;2024-01-30T09:52:43;19.37;;;14.53;;
14381;SDS011;7275;50.328;8.720;2024-01-30T09:55:11;17.90;;;14.53;;
14381;SDS011;7275;50.328;8.720;2024-01-30T09:57:39;18.43;;;14.53;;
14381;SDS011;7275;50.328;8.720;2024-01-30T10:00:09;18.63;;;14.43;;
14381;SDS011;7275;50.328;8.720;2024-01-30T10:02:38;16.33;;;14.00;;
14381;SDS011;7275;50.328;8.720;2024-01-30T10:05:07;20.27;;;14.80;;
14381;SDS011;7275;50.328;8.720;2024-01-30T10:07:36;19.20;;;14.17;;
14381;SDS011;7275;50.328;8.720;2024-01-30T10:10:05;20.43;;;15.07;;
14381;SDS011;7275;50.328;8.720;2024-01-30T10:12:33;18.03;;;14.47;;
14381;SDS011;7275;50.328;8.720;2024-01-30T10:15:00;16.93;;;14.27;;
14381;SDS011;7275;50.328;8.720;2024-01-30T10:17:28;17.43;;;15.43;;
14381;SDS011;7275;50.328;8.720;2024-01-30T10:19:59;17.77;;;15.13;;
14381;SDS011;7275;50.328;8.720;2024-01-30T10:22:29;18.00;;;14.43;;
14381;SDS011;7275;50.328;8.720;2024-01-30T10:24:57;16.93;;;14.50;;
14381;SDS011;7275;50.328;8.720;2024-01-30T10:27:30;18.70;;;15.17;;
14381;SDS011;7275;50.328;8.720;2024-01-30T10:29:58;18.83;;;15.37;;
14381;SDS011;7275;50.328;8.720;2024-01-30T10:32:27;18.40;;;15.03;;
14381;SDS011;7275;50.328;8.720;2024-01-30T10:34:54;19.90;;;15.83;;
14381;SDS011;7275;50.328;8.720;2024-01-30T10:37:22;18.83;;;15.43;;
14381;SDS011;7275;50.328;8.720;2024-01-30T10:39:54;19.03;;;15.43;;
14381;SDS011;7275;50.328;8.720;2024-01-30T10:42:28;18.63;;;14.87;;
14381;SDS011;7275;50.328;8.720;2024-01-30T10:45:00;20.73;;;15.77;;
14381;SDS011;7275;50.328;8.720;2024-01-30T10:47:33;19.97;;;15.87;;
14381;SDS011;7275;50.328;8.720;2024-01-30T10:50:02;19.07;;;15.93;;
14381;SDS011;7275;50.328;8.720;2024-01-30T10:52:30;19.97;;;15.77;;
14381;SDS011;7275;50.328;8.720;2024-01-30T10:55:00;19.90;;;15.33;;
14381;SDS011;7275;50.328;8.720;2024-01-30T10:57:30;20.10;;;16.13;;
14381;SDS011;7275;50.328;8.720;2024-01-30T11:00:01;18.60;;;16.07;;
14381;SDS011;7275;50.328;8.720;2024-01-30T11:02:32;20.50;;;15.93;;
14381;SDS011;7275;50.328;8.720;2024-01-30T11:05:00;17.97;;;15.47;;
14381;SDS011;7275;50.328;8.720;2024-01-30T11:07:28;19.80;;;16.13;;
14381;SDS011;7275;50.328;8.720;2024-01-30T11:10:01;19.17;;;16.07;;
14381;SDS011;7275;50.328;8.720;2024-01-30T11:12:30;19.83;;;15.87;;
14381;SDS011;7275;50.328;8.720;2024-01-30T11:15:04;17.50;;;15.60;;
14381;SDS011;7275;50.328;8.720;2024-01-30T11:17:42;19.70;;;15.10;;
14381;SDS011;7275;50.328;8.720;2024-01-30T11:20:11;18.23;;;15.50;;
14381;SDS011;7275;50.328;8.720;2024-01-30T11:22:41;20.37;;;15.73;;
14381;SDS011;7275;50.328;8.720;2024-01-30T11:25:14;18.63;;;15.90;;
14381;SDS011;7275;50.328;8.720;2024-01-30T11:27:43;20.33;;;15.30;;
14381;SDS011;7275;50.328;8.720;2024-01-30T11:30:20;20.03;;;15.60;;
14381;SDS011;7275;50.328;8.720;2024-01-30T11:32:57;18.43;;;15.03;;
14381;SDS011;7275;50.328;8.720;2024-01-30T11:35:27;16.80;;;14.40;;
14381;SDS011;7275;50.328;8.720;2024-01-30T11:37:57;17.83;;;15.23;;
14381;SDS011;7275;50.328;8.720;2024-01-30T11:40:29;17.40;;;15.20;;
14381;SDS011;7275;50.328;8.720;2024-01-30T11:42:58;17.70;;;15.37;;
14381;SDS011;7275;50.328;8.720;2024-01-30T11:45:26;17.07;;;15.27;;
14381;SDS011;7275;50.328;8.720;2024-01-30T11:47:54;20.43;;;14.90;;
14381;SDS011;7275;50.328;8.720;2024-01-30T11:50:24;18.17;;;14.93;;
14381;SDS011;7275;50.328;8.720;2024-01-30T11:52:53;18.77;;;15.07;;
14381;SDS011;7275;50.328;8.720;2024-01-30T11:55:21;18.90;;;15.03;;
14381;SDS011;7275;50.328;8.720;2024-01-30T11:57:51;16.17;;;14.37;;
14381;SDS011;7275;50.328;8.720;2024-01-30T12:00:22;19.17;;;14.47;;
14381;SDS011;7275;50.328;8.720;2024-01-30T12:02:51;17.47;;;14.80;;
14381;SDS011;7275;50.328;8.720;2024-01-30T12:05:22;19.87;;;14.63;;
14381;SDS011;7275;50.328;8.720;2024-01-30T12:07:50;18.70;;;14.60;;
14381;SDS011;7275;50.328;8.720;2024-01-30T12:10:18;17.60;;;14.43;;
14381;SDS011;7275;50.328;8.720;2024-01-30T12:12:46;16.73;;;14.17;;
14381;SDS011;7275;50.328;8.720;2024-01-30T12:15:18;17.17;;;14.00;;
14381;SDS011;7275;50.328;8.720;2024-01-30T12:17:48;15.27;;;13.13;;
14381;SDS011;7275;50.328;8.720;2024-01-30T12:20:17;15.80;;;12.93;;
14381;SDS011;7275;50.328;8.720;2024-01-30T12:22:47;16.20;;;13.30;;
14381;SDS011;7275;50.328;8.720;2024-01-30T12:25:16;14.17;;;12.63;;
14381;SDS011;7275;50.328;8.720;2024-01-30T12:27:45;17.07;;;12.77;;
14381;SDS011;7275;50.328;8.720;2024-01-30T12:30:19;15.67;;;13.23;;
14381;SDS011;7275;50.328;8.720;2024-01-30T12:32:49;14.37;;;12.87;;
14381;SDS011;7275;50.328;8.720;2024-01-30T12:35:19;14.30;;;12.80;;
14381;SDS011;7275;50.328;8.720;2024-01-30T12:37:48;16.13;;;13.50;;
14381;SDS011;7275;50.328;8.720;2024-01-30T12:40:17;14.77;;;12.93;;
14381;SDS011;7275;50.328;8.720;2024-01-30T12:42:46;15.97;;;14.27;;
14381;SDS011;7275;50.328;8.720;2024-01-30T12:45:15;17.70;;;13.20;;
14381;SDS011;7275;50.328;8.720;2024-01-30T12:47:47;14.63;;;13.10;;
14381;SDS011;7275;50.328;8.720;2024-01-30T12:50:15;17.37;;;13.80;;
14381;SDS011;7275;50.328;8.720;2024-01-30T12:52:43;18.40;;;13.80;;
14381;SDS011;7275;50.328;8.720;2024-01-30T12:55:15;16.40;;;13.23;;
14381;SDS011;7275;50.328;8.720;2024-01-30T12:57:43;15.73;;;13.10;;
14381;SDS011;7275;50.328;8.720;2024-01-30T13:00:11;16.20;;;13.67;;
14381;SDS011;7275;50.328;8.720;2024-01-30T13:02:39;18.60;;;13.73;;
14381;SDS011;7275;50.328;8.720;2024-01-30T13:05:09;15.83;;;14.03;;
14381;SDS011;7275;50.328;8.720;2024-01-30T13:07:38;17.40;;;14.03;;
14381;SDS011;7275;50.328;8.720;2024-01-30T13:10:06;16.67;;;14.17;;
14381;SDS011;7275;50.328;8.720;2024-01-30T13:12:33;18.03;;;13.90;;
14381;SDS011;7275;50.328;8.720;2024-01-30T13:15:01;17.10;;;14.07;;
14381;SDS011;7275;50.328;8.720;2024-01-30T13:17:30;14.57;;;13.00;;
14381;SDS011;7275;50.328;8.720;2024-01-30T13:19:58;15.67;;;13.10;;
14381;SDS011;7275;50.328;8.720;2024-01-30T13:22:37;17.00;;;13.93;;
14381;SDS011;7275;50.328;8.720;2024-01-30T13:25:06;15.13;;;13.53;;
14381;SDS011;7275;50.328;8.720;2024-01-30T13:27:35;16.63;;;13.60;;
14381;SDS011;7275;50.328;8.720;2024-01-30T13:30:03;20.83;;;13.73;;
14381;SDS011;7275;50.328;8.720;2024-01-30T13:32:31;16.60;;;13.17;;
14381;SDS011;7275;50.328;8.720;2024-01-30T13:34:58;13.97;;;12.33;;
14381;SDS011;7275;50.328;8.720;2024-01-30T13:37:26;15.37;;;13.00;;
14381;SDS011;7275;50.328;8.720;2024-01-30T13:39:56;15.97;;;13.23;;
14381;SDS011;7275;50.328;8.720;2024-01-30T13:42:24;14.57;;;12.10;;
14381;SDS011;7275;50.328;8.720;2024-01-30T13:44:52;14.57;;;12.80;;
14381;SDS011;7275;50.328;8.720;2024-01-30T13:47:20;14.97;;;12.83;;
14381;SDS011;7275;50.328;8.720;2024-01-30T13:49:47;15.10;;;12.03;;
14381;SDS011;7275;50.328;8.720;2024-01-30T13:52:15;13.87;;;11.90;;
14381;SDS011;7275;50.328;8.720;2024-01-30T13:54:46;13.87;;;12.23;;
14381;SDS011;7275;50.328;8.720;2024-01-30T13:57:15;15.27;;;12.13;;
14381;SDS011;7275;50.328;8.720;2024-01-30T13:59:45;12.90;;;11.43;;
14381;SDS011;7275;50.328;8.720;2024-01-30T14:02:12;13.67;;;11.20;;
14381;SDS011;7275;50.328;8.720;2024-01-30T14:04:40;16.30;;;12.20;;
14381;SDS011;7275;50.328;8.720;2024-01-30T14:07:08;13.93;;;11.53;;
14381;SDS011;7275;50.328;8.720;2024-01-30T14:09:35;14.40;;;11.60;;
14381;SDS011;7275;50.328;8.720;2024-01-30T14:12:03;13.33;;;11.27;;
14381;SDS011;7275;50.328;8.720;2024-01-30T14:14:32;14.60;;;11.70;;
14381;SDS011;7275;50.328;8.720;2024-01-30T14:17:00;14.60;;;12.07;;
14381;SDS011;7275;50.328;8.720;2024-01-30T14:19:28;14.77;;;12.43;;
14381;SDS011;7275;50.328;8.720;2024-01-30T14:21:55;13.37;;;11.60;;
14381;SDS011;7275;50.328;8.720;2024-01-30T14:24:23;13.53;;;11.33;;
14381;SDS011;7275;50.328;8.720;2024-01-30T14:26:51;14.40;;;11.40;;
14381;SDS011;7275;50.328;8.720;2024-01-30T14:29:18;13.73;;;12.27;;
14381;SDS011;7275;50.328;8.720;2024-01-30T14:31:47;15.67;;;12.07;;
14381;SDS011;7275;50.328;8.720;2024-01-30T14:34:15;14.10;;;12.00;;
14381;SDS011;7275;50.328;8.720;2024-01-30T14:36:43;14.63;;;11.70;;
14381;SDS011;7275;50.328;8.720;2024-01-30T14:39:11;14.70;;;12.10;;
14381;SDS011;7275;50.328;8.720;2024-01-30T14:41:38;15.70;;;12.53;;
14381;SDS011;7275;50.328;8.720;2024-01-30T14:44:06;14.80;;;12.23;;
14381;SDS011;7275;50.328;8.720;2024-01-30T14:46:34;15.07;;;12.43;;
14381;SDS011;7275;50.328;8.720;2024-01-30T14:49:03;12.60;;;11.23;;
14381;SDS011;7275;50.328;8.720;2024-01-30T14:51:33;15.80;;;12.33;;
14381;SDS011;7275;50.328;8.720;2024-01-30T14:54:01;14.33;;;12.17;;